Time;durP1;ratioP1;P1;durP2;ratioP2;P2;SDS_P1;SDS_P2;PMS_P1;PMS_P2;Temp;Humidity;BMP_temperature;BMP_pressure;BME280_temperature;BME280_humidity;BME280_pressure;Samples;Min_cycle;Max_cycle;Signal;HPM_P1;HPM_P2
2021/12/12 00:00:51;;;;;;;7.93;4.80;;;;;;;7.10;100.00;61556.81;5113743;28;20502;-78
2021/12/12 00:03:33;;;;;;;5.83;4.50;;;;;;;6.04;100.00;61448.78;5113708;28;20923;-78
2021/12/12 00:06:01;;;;;;;6.50;4.60;;;;;;;5.86;100.00;61425.59;5114345;28;20941;-78
2021/12/12 00:08:31;;;;;;;7.63;4.63;;;;;;;6.56;100.00;61499.19;5112822;28;20489;-78
2021/12/12 00:11:23;;;;;;;17.87;5.10;;;;;;;6.89;100.00;61536.38;5113645;28;20425;-78
2021/12/12 00:13:56;;;;;;;9.47;4.77;;;;;;;6.35;100.00;61477.31;5113381;28;20831;-77
2021/12/12 00:16:24;;;;;;;8.90;4.83;;;;;;;6.32;100.00;61473.59;5114207;28;20432;-79
2021/12/12 00:18:53;;;;;;;9.00;5.70;;;;;;;6.06;100.00;61440.78;5113253;28;20492;-79
2021/12/12 00:21:24;;;;;;;7.63;5.93;;;;;;;6.71;100.00;61512.66;5113289;28;20489;-77
2021/12/12 00:23:57;;;;;;;10.30;7.50;;;;;;;6.64;100.00;61502.66;5113438;28;20521;-77
2021/12/12 00:26:26;;;;;;;13.07;9.30;;;;;;;6.66;100.00;61507.84;5113589;28;20432;-76
2021/12/12 00:28:57;;;;;;;13.23;9.07;;;;;;;6.77;100.00;61524.09;5113077;28;21059;-78
2021/12/12 00:31:26;;;;;;;14.10;10.17;;;;;;;6.84;100.00;61529.56;5113211;28;20482;-77
2021/12/12 00:34:01;;;;;;;16.53;10.77;;;;;;;5.61;100.00;61395.88;5113327;28;20449;-78
2021/12/12 00:36:35;;;;;;;14.03;9.40;;;;;;;6.77;100.00;61521.56;5113289;28;20436;-79
2021/12/12 00:39:10;;;;;;;16.17;9.23;;;;;;;6.87;100.00;61529.72;5094513;28;20491;-78
2021/12/12 00:41:44;;;;;;;10.63;7.77;;;;;;;6.75;100.00;61519.44;5112699;28;20479;-77
2021/12/12 00:44:14;;;;;;;13.83;8.10;;;;;;;6.89;100.00;61534.38;5113098;28;20475;-78
2021/12/12 00:46:42;;;;;;;14.07;8.17;;;;;;;6.13;100.00;61453.31;5112846;28;20502;-78
2021/12/12 00:49:12;;;;;;;11.20;7.63;;;;;;;7.01;100.00;61549.19;5112323;28;20441;-78
2021/12/12 00:51:43;;;;;;;10.93;7.73;;;;;;;7.01;100.00;61549.72;5112915;28;20445;-77
2021/12/12 00:54:18;;;;;;;15.77;8.03;;;;;;;6.94;100.00;61542.25;5112593;28;20919;-76
2021/12/12 00:56:50;;;;;;;14.53;9.00;;;;;;;6.84;100.00;61529.06;5113606;28;20476;-75
2021/12/12 00:59:20;;;;;;;14.33;9.57;;;;;;;6.88;100.00;61532.78;5113606;28;20480;-78
2021/12/12 01:01:53;;;;;;;18.17;9.33;;;;;;;5.80;100.00;61416.09;5115120;28;20970;-77
2021/12/12 01:04:27;;;;;;;18.30;10.33;;;;;;;7.08;100.00;61557.19;5112694;28;20449;-76
2021/12/12 01:07:03;;;;;;;13.73;8.33;;;;;;;6.97;100.00;61542.38;5094420;28;20448;-78
2021/12/12 01:09:42;;;;;;;11.30;7.13;;;;;;;6.90;100.00;61534.91;5112693;28;20416;-77
2021/12/12 01:12:16;;;;;;;10.63;5.67;;;;;;;6.84;100.00;61531.59;5113246;28;20436;-79
2021/12/12 01:14:55;;;;;;;5.57;3.70;;;;;;;6.83;100.00;61527.97;5094364;28;20824;-76
2021/12/12 01:17:38;;;;;;;6.23;4.03;;;;;;;5.82;100.00;61418.78;5112368;28;20428;-79
2021/12/12 01:20:25;;;;;;;3.90;3.20;;;;;;;6.84;100.00;61529.56;5111481;28;20440;-79
2021/12/12 01:22:57;;;;;;;7.03;3.47;;;;;;;6.87;100.00;61534.78;5112659;28;20436;-78
2021/12/12 01:25:32;;;;;;;4.97;3.03;;;;;;;6.26;100.00;61472.25;5112372;28;20528;-78
2021/12/12 01:28:06;;;;;;;4.00;2.80;;;;;;;6.44;100.00;61486.91;5113028;28;20890;-75
2021/12/12 01:30:35;;;;;;;4.53;3.00;;;;;;;6.18;100.00;61458.66;5112321;28;20429;-75
2021/12/12 01:33:03;;;;;;;4.93;3.77;;;;;;;6.06;100.00;61448.38;5111937;28;20569;-76
2021/12/12 01:35:32;;;;;;;5.60;3.57;;;;;;;4.97;100.00;61338.31;5112718;28;20528;-76
2021/12/12 01:41:01;;;;;;;5.03;2.80;;;;;;;5.93;100.00;61433.06;5112607;28;20443;-78
2021/12/12 01:43:35;;;;;;;5.00;2.57;;;;;;;5.78;100.00;61417.03;5111777;28;20443;-76
2021/12/12 01:46:07;;;;;;;3.80;2.60;;;;;;;4.66;100.00;61295.19;5093782;28;20950;-79
2021/12/12 01:48:45;;;;;;;4.37;2.90;;;;;;;4.27;100.00;61257.28;5111893;28;20924;-77
2021/12/12 01:51:18;;;;;;;2.90;2.50;;;;;;;5.88;100.00;61427.72;5111952;28;20963;-77
2021/12/12 01:53:58;;;;;;;3.20;2.67;;;;;;;5.80;100.00;61419.16;5111834;28;20417;-77
2021/12/12 01:56:54;;;;;;;3.90;2.70;;;;;;;5.83;100.00;61422.41;5112755;28;20421;-77
2021/12/12 01:59:27;;;;;;;3.77;2.93;;;;;;;5.52;100.00;61381.75;5112478;28;20530;-76
2021/12/12 02:01:59;;;;;;;3.57;2.60;;;;;;;5.70;100.00;61413.56;5111759;28;20963;-78
2021/12/12 02:04:30;;;;;;;3.90;2.77;;;;;;;5.70;100.00;61408.50;5112019;28;20458;-78
2021/12/12 02:06:59;;;;;;;4.83;3.10;;;;;;;5.59;100.00;61399.31;5112035;28;20557;-79
2021/12/12 02:09:30;;;;;;;3.73;2.70;;;;;;;5.24;100.00;61362.03;5111634;28;20533;-75
2021/12/12 02:12:02;;;;;;;3.23;2.90;;;;;;;5.38;100.00;61376.94;5111751;28;20432;-79
2021/12/12 02:14:33;;;;;;;4.63;2.97;;;;;;;5.21;100.00;61355.78;5111943;28;20425;-77
2021/12/12 02:17:05;;;;;;;10.00;5.50;;;;;;;5.20;100.00;61357.75;5112429;28;20437;-78
2021/12/12 02:19:41;;;;;;;5.57;3.73;;;;;;;4.39;100.00;61271.50;5111811;28;20488;-77
2021/12/12 02:22:34;;;;;;;9.23;4.10;;;;;;;5.24;100.00;61358.97;5112222;28;20421;-76
2021/12/12 02:36:20;;;;;;;5.93;3.03;;;;;;;5.47;100.00;61378.41;5115281;28;20489;-76
2021/12/12 02:39:15;;;;;;;3.97;2.97;;;;;;;5.47;100.00;61388.53;5115276;28;20472;-79
2021/12/12 02:41:44;;;;;;;4.43;3.00;;;;;;;5.43;100.00;61379.75;5114880;28;20872;-78
2021/12/12 02:44:16;;;;;;;5.57;2.60;;;;;;;5.39;100.00;61375.47;5114961;28;20467;-75
2021/12/12 02:46:53;;;;;;;3.50;2.40;;;;;;;3.81;100.00;61208.34;5115852;28;20429;-77
2021/12/12 02:49:37;;;;;;;3.20;2.20;;;;;;;3.93;100.00;61221.09;5115054;28;20436;-77
2021/12/12 02:52:08;;;;;;;5.23;1.80;;;;;;;5.07;100.00;61341.91;5114388;28;20502;-75
2021/12/12 02:54:39;;;;;;;2.73;1.90;;;;;;;5.15;100.00;61352.44;5114822;28;20463;-75
2021/12/12 02:57:10;;;;;;;2.40;1.60;;;;;;;4.31;100.00;61260.47;5115138;28;20494;-77
2021/12/12 02:59:48;;;;;;;4.10;1.90;;;;;;;5.04;100.00;61333.13;5115143;28;20563;-77
2021/12/12 03:02:21;;;;;;;4.53;1.90;;;;;;;5.09;100.00;61343.53;5114606;28;20463;-78
2021/12/12 03:04:51;;;;;;;2.00;1.60;;;;;;;5.20;100.00;61354.69;5114481;28;20508;-78
2021/12/12 03:07:23;;;;;;;4.03;2.33;;;;;;;5.22;100.00;61362.41;5114581;28;20441;-76
2021/12/12 03:09:58;;;;;;;3.20;2.43;;;;;;;5.06;100.00;61340.31;5115263;28;20465;-78
2021/12/12 03:12:31;;;;;;;2.73;1.93;;;;;;;5.37;100.00;61370.81;5119071;28;20435;-75
2021/12/12 03:15:04;;;;;;;2.33;1.60;;;;;;;4.33;100.00;61260.09;5116043;28;20824;-76
2021/12/12 03:17:32;;;;;;;3.53;1.53;;;;;;;3.77;100.00;61199.03;5114211;28;20505;-75
2021/12/12 03:20:04;;;;;;;2.13;1.53;;;;;;;5.30;100.00;61365.34;5114570;28;21026;-76
2021/12/12 03:22:40;;;;;;;2.00;1.50;;;;;;;3.51;100.00;61178.41;5114933;28;21078;-76
2021/12/12 03:25:13;;;;;;;2.70;1.50;;;;;;;4.85;100.00;61320.50;5114421;28;20950;-78
2021/12/12 03:27:42;;;;;;;1.90;1.57;;;;;;;5.11;100.00;61343.13;5114239;28;20456;-76
2021/12/12 03:30:10;;;;;;;2.20;1.50;;;;;;;5.11;100.00;61345.66;5113718;28;20452;-76
2021/12/12 03:32:47;;;;;;;2.23;1.23;;;;;;;5.01;100.00;61340.06;5114151;28;20529;-76
2021/12/12 03:35:20;;;;;;;1.40;1.20;;;;;;;5.13;100.00;61350.31;5114223;28;20872;-77
2021/12/12 03:37:49;;;;;;;1.80;1.57;;;;;;;5.14;100.00;61348.84;5116582;28;20458;-76
2021/12/12 03:40:27;;;;;;;2.47;1.70;;;;;;;4.00;100.00;61228.56;5115307;28;20531;-77
2021/12/12 03:42:58;;;;;;;2.47;1.90;;;;;;;5.35;100.00;61373.75;5113046;27;20475;-77
2021/12/12 03:45:29;;;;;;;3.73;2.10;;;;;;;5.02;100.00;61336.06;5114288;28;20480;-77
2021/12/12 03:48:05;;;;;;;1.97;1.47;;;;;;;5.17;100.00;61352.03;5096332;28;20447;-77
2021/12/12 03:50:40;;;;;;;4.10;1.60;;;;;;;5.15;100.00;61349.91;5114369;28;20843;-78
2021/12/12 03:53:10;;;;;;;2.17;1.97;;;;;;;4.06;100.00;61234.94;5114350;28;20440;-77
2021/12/12 03:55:40;;;;;;;3.17;2.10;;;;;;;4.99;100.00;61332.88;5114164;28;20553;-79
2021/12/12 03:58:09;;;;;;;1.67;1.57;;;;;;;3.56;100.00;61181.22;5113660;28;20433;-77
2021/12/12 04:00:42;;;;;;;3.27;1.70;;;;;;;5.08;100.00;61344.97;5113845;28;20491;-76
2021/12/12 04:03:13;;;;;;;2.83;1.83;;;;;;;5.05;100.00;61344.31;5113405;28;21055;-77
2021/12/12 04:05:46;;;;;;;2.50;1.97;;;;;;;4.05;100.00;61236.38;5114222;28;20505;-77
2021/12/12 04:08:24;;;;;;;3.30;2.20;;;;;;;5.22;100.00;61359.34;5113661;28;21001;-77
2021/12/12 04:10:59;;;;;;;2.20;1.70;;;;;;;5.30;100.00;61365.88;5113839;28;20524;-77
2021/12/12 04:13:27;;;;;;;3.50;2.40;;;;;;;3.77;100.00;61204.06;5113473;28;20456;-79
2021/12/12 04:16:00;;;;;;;3.27;2.27;;;;;;;3.93;100.00;61221.09;5114057;28;20494;-76
2021/12/12 04:18:29;;;;;;;2.63;1.93;;;;;;;3.86;100.00;61213.66;5113550;28;21020;-78
2021/12/12 04:20:57;;;;;;;2.37;1.83;;;;;;;4.99;100.00;61332.88;5112673;28;20924;-76
2021/12/12 04:23:32;;;;;;;1.70;1.60;;;;;;;4.04;100.00;61232.28;5113168;28;20647;-77
2021/12/12 04:26:18;;;;;;;1.40;1.30;;;;;;;4.98;100.00;61334.31;5113450;28;20432;-77
2021/12/12 04:31:48;;;;;;;1.20;1.10;;;;;;;3.12;100.00;61142.53;5112590;28;20437;-78
2021/12/12 04:34:24;;;;;;;1.17;0.93;;;;;;;4.84;100.00;61316.88;5094702;28;20464;-76
2021/12/12 04:36:55;;;;;;;1.40;1.30;;;;;;;3.18;100.00;61141.34;5113483;28;20888;-77
2021/12/12 04:39:28;;;;;;;0.97;0.90;;;;;;;3.40;100.00;61165.25;5112961;28;20480;-77
2021/12/12 04:42:15;;;;;;;0.93;0.90;;;;;;;4.64;100.00;61295.59;5113083;28;20437;-77
2021/12/12 04:44:49;;;;;;;1.37;1.10;;;;;;;4.68;100.00;61305.44;5113048;28;20464;-78
2021/12/12 04:50:18;;;;;;;1.20;1.10;;;;;;;4.35;100.00;61267.25;5113102;28;20613;-77
2021/12/12 04:52:51;;;;;;;1.20;1.07;;;;;;;4.41;100.00;61271.13;5113020;28;20497;-77
2021/12/12 04:55:24;;;;;;;2.23;1.43;;;;;;;4.48;100.00;61283.59;5112777;28;20510;-76
2021/12/12 04:58:03;;;;;;;1.90;1.30;;;;;;;4.16;100.00;61245.56;5112559;28;20429;-76
2021/12/12 05:00:36;;;;;;;1.57;1.00;;;;;;;4.27;100.00;61262.31;5113130;28;21002;-76
2021/12/12 05:03:20;;;;;;;0.93;0.93;;;;;;;4.45;100.00;61272.84;5112669;28;20493;-77
2021/12/12 05:05:56;;;;;;;2.17;1.40;;;;;;;4.13;100.00;61241.84;5112496;28;20452;-77
2021/12/12 05:08:33;;;;;;;1.53;1.30;;;;;;;3.76;100.00;61205.00;5112354;28;20513;-77
2021/12/12 05:11:06;;;;;;;1.23;1.10;;;;;;;4.13;100.00;61242.38;5112161;28;20479;-78
2021/12/12 05:13:39;;;;;;;1.93;1.30;;;;;;;4.02;100.00;61233.19;5112659;28;20441;-77
2021/12/12 05:16:13;;;;;;;1.57;1.30;;;;;;;3.70;100.00;61196.63;5112819;28;20849;-75
2021/12/12 05:18:50;;;;;;;1.20;1.10;;;;;;;4.15;100.00;61243.97;5112190;28;20433;-75
2021/12/12 05:21:26;;;;;;;2.63;1.60;;;;;;;3.55;100.00;61178.16;5112185;28;20476;-78
2021/12/12 05:24:00;;;;;;;1.80;1.50;;;;;;;3.93;100.00;61226.13;5113837;28;20443;-76
2021/12/12 05:26:31;;;;;;;2.90;1.93;;;;;;;4.07;100.00;61236.00;5115141;28;20437;-78
2021/12/12 05:29:10;;;;;;;2.07;1.73;;;;;;;2.94;100.00;61120.88;5094507;28;20883;-78
2021/12/12 05:31:38;;;;;;;2.87;2.10;;;;;;;3.81;100.00;61210.84;5112299;28;21004;-77
2021/12/12 05:34:07;;;;;;;5.93;2.30;;;;;;;3.80;100.00;61207.28;5111912;28;20864;-77
2021/12/12 05:36:37;;;;;;;2.40;1.87;;;;;;;2.50;100.00;61080.19;5112150;28;20440;-77
2021/12/12 05:39:08;;;;;;;2.37;1.90;;;;;;;3.55;100.00;61182.66;5112044;28;20971;-78
2021/12/12 05:41:37;;;;;;;1.60;1.40;;;;;;;2.64;100.00;61091.50;5112485;28;20497;-80
2021/12/12 05:44:10;;;;;;;13.90;5.37;;;;;;;3.89;100.00;61216.84;5111542;28;20545;-78
2021/12/12 05:46:37;;;;;;;3.87;1.90;;;;;;;3.86;100.00;61213.66;5111562;28;20453;-77
2021/12/12 05:49:06;;;;;;;3.83;2.20;;;;;;;2.57;100.00;61077.06;5111749;28;20445;-77
2021/12/12 05:51:35;;;;;;;3.53;2.40;;;;;;;3.87;100.00;61214.72;5111593;28;20441;-76
2021/12/12 05:54:05;;;;;;;8.47;2.20;;;;;;;3.95;100.00;61222.69;5111723;28;20827;-76
2021/12/12 05:56:37;;;;;;;2.20;1.87;;;;;;;3.50;100.00;61175.38;5111612;28;20493;-78
2021/12/12 05:59:08;;;;;;;3.43;2.40;;;;;;;4.09;100.00;61238.13;5111658;28;20506;-78
2021/12/12 06:01:38;;;;;;;2.10;1.90;;;;;;;2.93;100.00;61112.25;5111301;28;20444;-75
2021/12/12 06:04:07;;;;;;;1.97;1.67;;;;;;;3.55;100.00;61182.66;5111528;28;20919;-77
2021/12/12 06:06:41;;;;;;;2.30;1.70;;;;;;;3.79;100.00;61205.66;5093014;28;20428;-77
2021/12/12 06:09:12;;;;;;;1.77;1.30;;;;;;;2.40;100.00;61064.53;5111947;28;20429;-80
2021/12/12 06:11:45;;;;;;;1.37;1.20;;;;;;;3.48;100.00;61178.28;5111302;28;20447;-79
2021/12/12 06:17:02;;;;;;;5.30;3.40;;;;;;;3.64;100.00;61190.25;5111172;28;20468;-77
2021/12/12 06:19:32;;;;;;;1.20;1.10;;;;;;;3.77;100.00;61211.63;5110998;28;20450;-77
2021/12/12 06:22:04;;;;;;;1.43;0.90;;;;;;;2.76;100.00;61091.69;5112886;28;20432;-78
2021/12/12 06:24:40;;;;;;;3.17;1.70;;;;;;;3.93;100.00;61225.59;5112111;28;20433;-82
2021/12/12 06:27:11;;;;;;;3.33;2.43;;;;;;;4.03;100.00;61231.19;5114298;28;20434;-79
2021/12/12 06:29:40;;;;;;;4.23;2.10;;;;;;;4.14;100.00;61248.50;5112626;28;20785;-77
2021/12/12 06:32:27;;;;;;;3.40;2.50;;;;;;;4.08;100.00;61237.06;5129955;28;20432;-78
2021/12/12 06:34:59;;;;;;;3.57;1.77;;;;;;;4.74;100.00;61306.78;5093400;28;20445;-79
2021/12/12 06:37:29;;;;;;;2.37;1.40;;;;;;;5.41;100.00;61380.13;5093463;28;20892;-79
2021/12/12 06:40:04;;;;;;;1.70;1.60;;;;;;;5.74;100.00;61414.75;5111620;28;20503;-79
2021/12/12 06:42:35;;;;;;;2.73;2.10;;;;;;;6.15;100.00;61455.44;5111742;28;20501;-78
2021/12/12 06:45:07;;;;;;;1.67;1.30;;;;;;;5.64;100.00;61404.63;5111111;28;20456;-78
2021/12/12 06:47:45;;;;;;;2.03;1.30;;;;;;;7.36;100.00;61582.03;5093371;28;20536;-77
2021/12/12 06:50:14;;;;;;;2.20;1.67;;;;;;;7.71;100.00;61621.38;5111016;28;20810;-76
2021/12/12 06:52:41;;;;;;;1.40;1.00;;;;;;;7.58;100.00;61610.59;5111555;28;20452;-77
2021/12/12 06:55:13;;;;;;;1.47;1.10;;;;;;;7.36;100.00;61584.56;5110996;28;20448;-76
2021/12/12 06:57:42;;;;;;;1.40;1.30;;;;;;;8.14;100.00;61672.41;5111162;28;20501;-78
2021/12/12 07:00:14;;;;;;;1.50;1.07;;;;;;;7.91;100.00;61647.31;5110359;28;21071;-77
2021/12/12 07:02:50;;;;;;;1.07;0.97;;;;;;;8.25;100.00;61674.03;5111055;28;20448;-77
2021/12/12 07:05:23;;;;;;;2.40;0.90;;;;;;;5.98;100.00;61438.38;5111148;28;20545;-76
2021/12/12 07:08:02;;;;;;;0.70;0.70;;;;;;;7.14;100.00;61561.06;5111466;28;20437;-77
2021/12/12 07:10:33;;;;;;;1.10;1.00;;;;;;;6.35;100.00;61476.78;5112110;28;20448;-75
2021/12/12 07:13:03;;;;;;;1.93;1.00;;;;;;;6.08;100.00;61450.50;5111891;28;20437;-78
2021/12/12 07:18:28;;;;;;;3.30;1.00;;;;;;;5.07;100.00;61341.91;5110758;28;20557;-78
2021/12/12 07:20:59;;;;;;;2.50;1.53;;;;;;;4.53;100.00;61288.94;5114293;28;20487;-75
2021/12/12 07:23:28;;;;;;;2.67;1.43;;;;;;;4.92;100.00;61325.94;5115226;28;20436;-77
2021/12/12 07:25:56;;;;;;;2.27;1.47;;;;;;;4.07;100.00;61236.00;5115255;28;20449;-76
2021/12/12 07:28:24;;;;;;;2.53;1.27;;;;;;;4.83;100.00;61315.84;5114861;28;20437;-77
2021/12/12 07:30:54;;;;;;;1.57;1.30;;;;;;;5.35;100.00;61375.75;5111392;28;20452;-76
2021/12/12 07:33:27;;;;;;;1.37;1.27;;;;;;;3.55;100.00;61180.69;5114147;28;20456;-79
2021/12/12 07:36:00;;;;;;;1.13;1.00;;;;;;;4.31;100.00;61260.47;5117454;28;20892;-76
2021/12/12 07:38:37;;;;;;;2.30;1.40;;;;;;;3.97;100.00;61224.81;5117232;28;20485;-78
2021/12/12 07:41:07;;;;;;;3.17;1.10;;;;;;;3.93;100.00;61213.00;5114961;28;20507;-78
2021/12/12 07:43:38;;;;;;;1.93;1.17;;;;;;;3.85;100.00;61212.06;5115292;28;20466;-78
2021/12/12 07:48:56;;;;;;;1.43;1.20;;;;;;;1.89;100.00;61002.88;5114242;28;20462;-76
2021/12/12 07:51:29;;;;;;;1.50;1.27;;;;;;;2.51;100.00;61073.19;5114892;28;20444;-78
2021/12/12 07:54:01;;;;;;;1.63;1.50;;;;;;;3.60;100.00;61183.50;5095898;28;20458;-78
2021/12/12 07:56:32;;;;;;;1.30;1.17;;;;;;;2.95;100.00;61114.91;5113924;28;20445;-78
2021/12/12 07:59:02;;;;;;;2.00;1.53;;;;;;;3.32;100.00;61151.72;5114065;28;20959;-78
2021/12/12 08:01:30;;;;;;;1.50;1.10;;;;;;;3.21;100.00;61144.53;5114198;28;20488;-77
2021/12/12 08:04:02;;;;;;;1.50;1.20;;;;;;;3.11;100.00;61134.44;5113509;28;20532;-75
2021/12/12 08:06:35;;;;;;;2.00;1.40;;;;;;;3.58;100.00;61183.88;5114115;28;20424;-79
2021/12/12 08:09:09;;;;;;;1.93;1.30;;;;;;;1.95;100.00;61016.78;5114210;28;20433;-76
2021/12/12 08:11:47;;;;;;;1.50;1.40;;;;;;;2.29;100.00;61045.34;5114213;28;20817;-77
2021/12/12 08:14:19;;;;;;;1.83;1.47;;;;;;;2.95;100.00;61116.91;5114336;28;20505;-77
2021/12/12 08:16:48;;;;;;;2.23;1.70;;;;;;;3.49;100.00;61179.34;5114064;28;20441;-77
2021/12/12 08:19:22;;;;;;;10.33;4.47;;;;;;;3.59;100.00;61182.41;5114035;28;20433;-77
2021/12/12 08:21:49;;;;;;;7.33;3.43;;;;;;;2.52;100.00;61084.84;5114267;28;21021;-76
2021/12/12 08:24:17;;;;;;;17.63;7.13;;;;;;;3.75;100.00;61204.47;5115167;28;20971;-78
2021/12/12 08:26:52;;;;;;;25.17;9.30;;;;;;;3.75;100.00;61201.41;5115890;28;20456;-78
2021/12/12 08:29:21;;;;;;;13.87;5.90;;;;;;;3.91;100.00;61221.50;5095127;28;20448;-79
2021/12/12 08:31:51;;;;;;;10.93;4.90;;;;;;;3.95;100.00;61223.22;5113214;28;20451;-78
2021/12/12 08:34:21;;;;;;;4.97;2.60;;;;;;;4.15;100.00;61247.03;5096617;28;20468;-77
2021/12/12 08:36:52;;;;;;;5.57;2.47;;;;;;;3.67;100.00;61190.91;5115016;28;20436;-78
2021/12/12 08:39:20;;;;;;;5.90;2.30;;;;;;;4.41;100.00;61268.59;5114828;28;20453;-77
2021/12/12 08:41:50;;;;;;;3.67;2.37;;;;;;;4.51;100.00;61282.28;5112923;28;21058;-76
2021/12/12 08:44:20;;;;;;;3.03;2.40;;;;;;;4.28;100.00;61257.81;5113146;28;20448;-76
2021/12/12 08:46:50;;;;;;;2.90;1.90;;;;;;;4.15;100.00;61244.50;5072300;28;20446;-77
2021/12/12 08:49:24;;;;;;;2.60;1.60;;;;;;;3.84;100.00;61206.50;5072617;28;20459;-78
2021/12/12 08:52:03;;;;;;;2.07;1.70;;;;;;;3.89;100.00;61216.84;5072726;28;20470;-77
2021/12/12 08:54:31;;;;;;;3.20;1.90;;;;;;;4.08;100.00;61239.59;5073110;28;20418;-76
2021/12/12 08:57:05;;;;;;;3.00;1.97;;;;;;;3.58;100.00;61183.34;5074020;28;20446;-78
2021/12/12 08:59:35;;;;;;;3.50;2.20;;;;;;;4.00;100.00;61228.56;5072963;28;20863;-77
2021/12/12 09:02:07;;;;;;;3.87;1.97;;;;;;;3.66;100.00;61192.38;5072796;28;20505;-75
2021/12/12 09:04:39;;;;;;;3.20;2.10;;;;;;;3.32;100.00;61156.22;5073194;28;20443;-79
2021/12/12 09:07:12;;;;;;;2.00;1.57;;;;;;;3.46;100.00;61171.13;5072630;28;20517;-78
2021/12/12 09:09:44;;;;;;;3.90;1.90;;;;;;;4.04;100.00;61232.81;5072966;28;20443;-78
2021/12/12 09:12:17;;;;;;;2.40;1.80;;;;;;;2.75;100.00;61100.66;5072690;28;20497;-77
2021/12/12 09:14:49;;;;;;;2.50;1.90;;;;;;;4.00;100.00;61228.00;5071059;28;20469;-76
2021/12/12 09:17:22;;;;;;;2.37;1.90;;;;;;;3.74;100.00;61210.44;5072183;28;20442;-76
2021/12/12 09:19:57;;;;;;;4.87;1.63;;;;;;;4.16;100.00;61240.53;5072261;28;20451;-78
2021/12/12 09:22:30;;;;;;;3.97;2.20;;;;;;;3.86;100.00;61213.66;5072499;28;20485;-77
2021/12/12 09:25:03;;;;;;;4.30;2.10;;;;;;;4.33;100.00;61262.59;5072169;28;20454;-78
2021/12/12 09:27:35;;;;;;;2.43;1.83;;;;;;;4.07;100.00;61236.00;5071917;28;20435;-76
2021/12/12 09:30:09;;;;;;;1.63;1.53;;;;;;;3.82;100.00;61209.41;5072658;28;20438;-78
2021/12/12 09:32:42;;;;;;;2.07;1.70;;;;;;;3.80;100.00;61204.75;5071479;28;20467;-76
2021/12/12 09:35:18;;;;;;;3.40;2.00;;;;;;;3.18;100.00;61144.38;5072042;28;20488;-76
2021/12/12 09:37:49;;;;;;;1.60;1.50;;;;;;;2.60;100.00;61069.66;5071432;28;20449;-75
2021/12/12 09:40:28;;;;;;;3.60;1.80;;;;;;;3.77;100.00;61206.59;5071767;28;20457;-80
2021/12/12 09:43:06;;;;;;;2.40;1.70;;;;;;;3.59;100.00;61184.94;5072352;28;20442;-78
2021/12/12 09:46:05;;;;;;;3.20;2.13;;;;;;;3.65;100.00;61188.78;5093795;28;20472;-76
2021/12/12 09:52:49;;;;;;;2.83;2.20;;;;;;;3.67;100.00;61190.91;5112259;28;20432;-76
2021/12/12 09:55:23;;;;;;;3.00;2.30;;;;;;;3.79;100.00;61203.69;5101610;28;20448;-77
2021/12/12 09:57:55;;;;;;;3.03;2.10;;;;;;;3.81;100.00;61213.38;5112043;28;20436;-76
2021/12/12 10:00:29;;;;;;;4.27;2.37;;;;;;;3.70;100.00;61196.63;5111867;28;20448;-79
2021/12/12 10:03:11;;;;;;;2.53;2.03;;;;;;;3.25;100.00;61151.84;5112143;28;20494;-80
2021/12/12 10:05:52;;;;;;;3.13;2.43;;;;;;;3.60;100.00;61182.94;5111816;28;20436;-77
2021/12/12 10:08:32;;;;;;;2.80;2.40;;;;;;;3.61;100.00;61189.56;5111916;28;20433;-79
2021/12/12 10:11:04;;;;;;;2.93;2.40;;;;;;;3.65;100.00;61190.78;5112049;28;20437;-79
2021/12/12 10:13:35;;;;;;;3.03;1.97;;;;;;;3.84;100.00;61211.53;5112213;28;20852;-76
2021/12/12 10:16:06;;;;;;;3.03;2.60;;;;;;;3.99;100.00;61224.97;5111530;28;20437;-77
2021/12/12 10:18:47;;;;;;;2.73;2.00;;;;;;;3.91;100.00;61218.97;5111685;28;20551;-80
2021/12/12 10:21:23;;;;;;;2.73;1.93;;;;;;;3.74;100.00;61200.91;5111605;28;20468;-75
2021/12/12 10:24:08;;;;;;;1.97;1.70;;;;;;;2.78;100.00;61099.34;5111183;28;20486;-76
2021/12/12 10:26:47;;;;;;;5.60;2.07;;;;;;;3.90;100.00;61217.38;5113256;28;20429;-76
2021/12/12 10:29:20;;;;;;;3.10;2.30;;;;;;;4.52;100.00;61282.81;5112444;28;20428;-77
2021/12/12 10:31:51;;;;;;;4.00;2.70;;;;;;;4.62;100.00;61298.50;5111212;28;20457;-77
2021/12/12 10:34:22;;;;;;;3.57;2.30;;;;;;;4.07;100.00;61236.00;5111924;28;20453;-77
2021/12/12 10:36:58;;;;;;;5.70;2.60;;;;;;;4.31;100.00;61260.47;5111499;28;20436;-76
2021/12/12 10:39:36;;;;;;;2.97;2.27;;;;;;;4.15;100.00;61249.53;5111942;28;20516;-76
2021/12/12 10:42:10;;;;;;;3.13;2.63;;;;;;;3.75;100.00;61201.94;5110952;28;20484;-77
2021/12/12 10:44:46;;;;;;;3.07;2.20;;;;;;;3.62;100.00;61187.59;5112420;28;20514;-79
2021/12/12 10:47:18;;;;;;;4.33;2.30;;;;;;;3.64;100.00;61189.72;5111532;28;20437;-75
2021/12/12 10:50:12;;;;;;;3.13;2.60;;;;;;;3.47;100.00;61174.69;5112111;28;20445;-78
2021/12/12 10:52:44;;;;;;;7.77;3.27;;;;;;;3.41;100.00;61165.78;5113245;28;20449;-76
2021/12/12 10:55:18;;;;;;;3.83;2.77;;;;;;;3.28;100.00;61151.97;5115857;28;20535;-74
2021/12/12 10:57:55;;;;;;;4.20;2.80;;;;;;;3.24;100.00;61147.72;5115400;28;20544;-76
2021/12/12 11:00:26;;;;;;;3.43;2.70;;;;;;;3.25;100.00;61148.78;5115555;28;20489;-76
2021/12/12 11:03:08;;;;;;;2.87;2.30;;;;;;;1.95;100.00;61016.78;5114654;28;20476;-77
2021/12/12 11:05:37;;;;;;;3.60;2.53;;;;;;;2.28;100.00;61046.25;5114696;28;20436;-79
2021/12/12 11:08:10;;;;;;;5.03;2.73;;;;;;;3.22;100.00;61145.59;5096546;28;20440;-75
2021/12/12 11:10:43;;;;;;;3.37;2.13;;;;;;;2.99;100.00;61126.16;5114580;28;20441;-76
2021/12/12 11:13:27;;;;;;;3.43;2.43;;;;;;;2.98;100.00;61120.09;5114714;28;20449;-78
2021/12/12 11:16:01;;;;;;;4.63;3.20;;;;;;;2.81;100.00;61099.50;5114411;28;20476;-77
2021/12/12 11:18:36;;;;;;;4.07;3.20;;;;;;;1.60;100.00;60979.59;5114503;28;20466;-75
2021/12/12 11:21:11;;;;;;;4.73;3.10;;;;;;;2.66;100.00;61086.09;5114933;28;20485;-75
2021/12/12 11:23:51;;;;;;;5.80;3.60;;;;;;;2.61;100.00;61080.75;5114469;28;20433;-76
2021/12/12 11:26:25;;;;;;;7.00;3.80;;;;;;;2.19;100.00;61039.19;5114039;28;20855;-76
2021/12/12 11:28:56;;;;;;;4.13;2.97;;;;;;;2.03;100.00;61030.28;5114545;28;20428;-77
2021/12/12 11:31:27;;;;;;;3.27;2.47;;;;;;;2.20;100.00;61038.28;5113818;28;20525;-77
2021/12/12 11:33:55;;;;;;;4.40;3.20;;;;;;;2.27;100.00;61050.22;5114538;28;20456;-75
2021/12/12 11:36:29;;;;;;;5.17;3.30;;;;;;;2.58;100.00;61077.59;5114087;28;20437;-76
2021/12/12 11:39:17;;;;;;;3.27;2.63;;;;;;;2.61;100.00;61081.31;5114252;28;20529;-78
2021/12/12 11:41:59;;;;;;;4.00;2.60;;;;;;;1.36;100.00;60949.66;5113765;28;20484;-77
2021/12/12 11:44:40;;;;;;;5.40;2.73;;;;;;;2.41;100.00;61060.59;5113278;28;20444;-76
2021/12/12 11:47:35;;;;;;;4.40;3.03;;;;;;;2.33;100.00;61052.09;5114168;28;20429;-78
2021/12/12 11:50:08;;;;;;;4.00;3.30;;;;;;;0.60;100.00;60869.59;5114950;28;20781;-75
2021/12/12 11:55:31;;;;;;;4.97;2.90;;;;;;;1.00;100.00;60915.94;5117642;28;20436;-77
2021/12/12 11:58:23;;;;;;;4.87;3.00;;;;;;;2.07;100.00;61023.94;5113635;28;20973;-75
2021/12/12 12:01:02;;;;;;;3.90;2.87;;;;;;;2.40;100.00;61059.53;5113887;28;20417;-74
2021/12/12 12:03:39;;;;;;;3.53;3.07;;;;;;;2.32;100.00;61051.03;5112989;28;20452;-77
2021/12/12 12:06:30;;;;;;;3.70;2.93;;;;;;;2.35;100.00;61056.19;5113965;28;20445;-75
2021/12/12 12:09:12;;;;;;;4.40;3.13;;;;;;;1.66;100.00;60978.97;5113927;28;20430;-76
2021/12/12 12:12:06;;;;;;;3.83;2.97;;;;;;;2.26;100.00;61044.13;5114057;28;20452;-78
2021/12/12 12:14:47;;;;;;;5.00;3.30;;;;;;;2.39;100.00;61060.97;5113123;28;20589;-76
2021/12/12 12:17:24;;;;;;;5.07;3.83;;;;;;;2.44;100.00;61063.22;5113576;28;20799;-74
2021/12/12 12:20:07;;;;;;;5.63;3.53;;;;;;;2.34;100.00;61053.16;5113939;28;20517;-78
2021/12/12 12:22:45;;;;;;;5.67;3.50;;;;;;;2.33;100.00;61051.56;5113724;28;20525;-77
2021/12/12 12:25:20;;;;;;;5.47;3.53;;;;;;;2.06;100.00;61023.41;5113299;28;20535;-79
2021/12/12 12:27:57;;;;;;;5.43;3.20;;;;;;;2.22;100.00;61040.41;5113329;28;20484;-76
2021/12/12 12:31:07;;;;;;;5.70;3.60;;;;;;;2.36;100.00;61055.28;5114128;28;20951;-76
2021/12/12 12:34:11;;;;;;;4.17;2.80;;;;;;;2.30;100.00;61048.91;5080541;28;20476;-75
2021/12/12 12:37:14;;;;;;;4.60;3.17;;;;;;;2.29;100.00;61049.81;5113318;28;20429;-77
2021/12/12 12:40:14;;;;;;;7.27;5.10;;;;;;;2.19;100.00;61034.72;5112665;28;20943;-76